Time;durP1;ratioP1;P1;durP2;ratioP2;P2;SDS_P1;SDS_P2;PMS_P1;PMS_P2;Temp;Humidity;BMP_temperature;BMP_pressure;BME280_temperature;BME280_humidity;BME280_pressure;Samples;Min_cycle;Max_cycle;Signal;HPM_P1;HPM_P2
2021/12/04 00:00:01;;;;;;;11.03;9.33;;;;;;;5.24;52.87;96926.22;8350366;28;20240;-66
2021/12/04 00:04:04;;;;;;;12.07;9.63;;;;;;;5.09;53.18;96922.50;8349683;28;20566;-67
2021/12/04 00:08:07;;;;;;;11.17;8.90;;;;;;;5.00;53.63;96903.16;8348389;28;20523;-67
2021/12/04 00:12:12;;;;;;;9.97;8.73;;;;;;;4.90;53.19;96883.91;8350140;28;20309;-68
2021/12/04 00:16:15;;;;;;;11.03;9.37;;;;;;;4.94;53.62;96885.44;8349755;28;20347;-67
2021/12/04 00:20:18;;;;;;;10.40;8.47;;;;;;;5.00;53.27;96897.19;8349769;28;20335;-67
2021/12/04 00:24:22;;;;;;;9.90;8.80;;;;;;;4.76;54.07;96886.13;8349543;28;20254;-67
2021/12/04 00:28:26;;;;;;;10.63;9.53;;;;;;;4.89;53.56;96885.63;8349333;28;20243;-67
2021/12/04 00:32:32;;;;;;;11.83;10.63;;;;;;;4.54;55.03;96875.88;8349425;28;20248;-67
2021/12/04 00:36:45;;;;;;;10.27;9.17;;;;;;;5.02;54.66;96872.31;8349348;28;20232;-68
2021/12/04 00:49:31;;;;;;;12.67;10.17;;;;;;;4.62;56.53;96840.50;8348796;28;20246;-68
2021/12/04 00:53:34;;;;;;;12.80;9.17;;;;;;;4.82;56.02;96832.88;8348974;28;20519;-67
2021/12/04 00:57:38;;;;;;;11.37;8.80;;;;;;;4.42;57.73;96844.69;8348705;28;20228;-68
2021/12/04 01:01:43;;;;;;;9.83;8.80;;;;;;;4.63;58.39;96829.38;8340482;28;20231;-67
2021/12/04 01:05:46;;;;;;;11.10;8.93;;;;;;;3.72;60.73;96817.34;8348295;28;20240;-67
2021/12/04 01:09:49;;;;;;;10.47;9.30;;;;;;;4.26;59.88;96805.94;8348252;28;20240;-68
2021/12/04 01:13:56;;;;;;;9.63;8.63;;;;;;;3.88;61.15;96815.06;8348560;28;20252;-67
2021/12/04 01:18:01;;;;;;;10.37;9.00;;;;;;;3.84;61.55;96814.31;8347901;28;20236;-66
2021/12/04 01:22:06;;;;;;;10.33;9.03;;;;;;;3.80;61.79;96801.69;8348120;28;20232;-67
2021/12/04 01:26:09;;;;;;;8.93;8.03;;;;;;;3.99;61.13;96794.19;8347851;28;20232;-67
2021/12/04 01:30:13;;;;;;;10.53;8.83;;;;;;;4.12;61.62;96787.72;8348516;28;20228;-66
2021/12/04 01:34:17;;;;;;;8.83;8.00;;;;;;;4.09;61.35;96778.44;8348306;28;20232;-66
2021/12/04 01:38:20;;;;;;;9.80;8.80;;;;;;;4.11;61.70;96768.94;8347589;28;20231;-66
2021/12/04 01:42:24;;;;;;;9.97;8.53;;;;;;;3.99;62.00;96764.28;8347885;28;20243;-67
2021/12/04 01:46:27;;;;;;;9.57;8.30;;;;;;;3.53;63.37;96748.84;8349945;28;20239;-66
2021/12/04 01:50:34;;;;;;;9.13;8.13;;;;;;;3.95;62.28;96751.66;8348117;28;20346;-67
2021/12/04 01:54:37;;;;;;;8.63;7.83;;;;;;;4.14;62.09;96733.84;8347587;28;20232;-67
2021/12/04 01:58:42;;;;;;;11.97;8.60;;;;;;;3.74;63.27;96733.59;8347306;28;20244;-67
2021/12/04 02:02:45;;;;;;;9.67;8.67;;;;;;;3.91;62.56;96731.25;8347354;28;20239;-67
2021/12/04 02:06:50;;;;;;;9.57;8.73;;;;;;;4.21;61.54;96727.59;8347154;28;20527;-67
2021/12/04 02:10:57;;;;;;;9.50;8.60;;;;;;;3.88;63.68;96723.69;8347036;28;20242;-67
2021/12/04 02:15:01;;;;;;;8.60;7.80;;;;;;;4.36;61.83;96724.44;8347085;28;20411;-67
2021/12/04 02:19:04;;;;;;;10.23;8.73;;;;;;;4.25;61.64;96716.34;8347249;28;20232;-67
2021/12/04 02:23:09;;;;;;;11.57;9.33;;;;;;;3.78;63.82;96713.84;8346259;28;20234;-67
2021/12/04 02:27:13;;;;;;;9.63;8.73;;;;;;;4.08;62.83;96702.44;8346638;28;20235;-67
2021/12/04 02:31:16;;;;;;;11.63;9.80;;;;;;;3.70;64.10;96699.59;8351555;28;20240;-67
2021/12/04 02:35:20;;;;;;;9.80;8.80;;;;;;;4.03;63.72;96696.66;8353251;28;20240;-67
2021/12/04 02:39:28;;;;;;;10.33;9.30;;;;;;;4.27;61.97;96694.03;8353021;28;20239;-67
2021/12/04 02:43:34;;;;;;;10.83;9.23;;;;;;;4.18;62.59;96684.97;8352672;28;20240;-66
2021/12/04 02:47:37;;;;;;;11.07;9.90;;;;;;;4.10;62.49;96676.75;8352630;28;20395;-67
2021/12/04 02:51:40;;;;;;;10.57;9.10;;;;;;;3.97;63.32;96658.47;8352420;28;20235;-67
2021/12/04 02:55:44;;;;;;;11.30;10.07;;;;;;;3.83;64.06;96648.75;8352414;28;20254;-67
2021/12/04 02:59:48;;;;;;;11.23;10.07;;;;;;;3.80;64.12;96642.91;8352121;28;20240;-67
2021/12/04 03:03:51;;;;;;;10.33;9.33;;;;;;;3.89;63.79;96629.75;8351822;28;20243;-67
2021/12/04 03:07:56;;;;;;;11.47;10.17;;;;;;;3.77;63.93;96632.78;8352022;28;20238;-67
2021/12/04 03:12:03;;;;;;;10.93;9.80;;;;;;;3.94;63.68;96620.19;8351728;28;20558;-68
2021/12/04 03:16:06;;;;;;;11.80;10.10;;;;;;;3.67;64.57;96616.94;8351362;28;20450;-67
2021/12/04 03:20:11;;;;;;;10.83;9.73;;;;;;;3.79;64.49;96610.50;8351618;28;20236;-67
2021/12/04 03:24:16;;;;;;;12.00;10.80;;;;;;;3.53;64.72;96600.38;8351669;28;20240;-67
2021/12/04 03:28:20;;;;;;;12.90;9.90;;;;;;;3.37;65.77;96596.75;8351463;28;20232;-67
2021/12/04 03:32:50;;;;;;;11.13;10.00;;;;;;;3.08;66.46;96592.69;8351213;28;20302;-67
2021/12/04 03:41:14;;;;;;;11.17;10.00;;;;;;;3.51;65.38;96565.50;8350658;28;20228;-67
2021/12/04 03:45:18;;;;;;;10.40;9.40;;;;;;;3.55;64.64;96566.22;8350699;28;20236;-67
2021/12/04 03:49:21;;;;;;;11.60;10.43;;;;;;;2.88;66.75;96568.69;8350749;28;20239;-66
2021/12/04 03:53:24;;;;;;;12.83;9.70;;;;;;;3.18;66.48;96559.94;8350770;28;20428;-67
2021/12/04 03:57:27;;;;;;;10.77;9.70;;;;;;;3.33;66.20;96541.44;8350372;28;20235;-66
2021/12/04 04:01:32;;;;;;;10.80;9.70;;;;;;;3.45;65.49;96542.72;8350062;28;20217;-67
2021/12/04 04:05:35;;;;;;;10.63;8.63;;;;;;;3.57;65.44;96539.66;8350214;28;20236;-67
2021/12/04 04:09:38;;;;;;;11.00;9.83;;;;;;;3.31;66.14;96525.31;8350345;28;20545;-67
2021/12/04 04:13:43;;;;;;;10.07;9.07;;;;;;;3.60;65.13;96513.09;8350162;28;20239;-66
2021/12/04 04:17:48;;;;;;;11.40;10.20;;;;;;;3.25;65.86;96512.75;8350104;28;20240;-67
2021/12/04 04:21:55;;;;;;;9.47;8.53;;;;;;;3.44;64.77;96498.34;8349840;28;20236;-68
2021/12/04 04:25:58;;;;;;;9.80;8.90;;;;;;;3.58;65.63;96492.72;8350147;28;20263;-67
2021/12/04 04:30:01;;;;;;;9.00;8.20;;;;;;;3.72;65.11;96502.38;8349817;28;20254;-67
2021/12/04 04:34:08;;;;;;;10.03;9.13;;;;;;;3.69;65.49;96488.00;8349145;28;20606;-67
2021/12/04 04:38:25;;;;;;;10.20;9.10;;;;;;;3.57;65.88;96482.53;8348601;28;20228;-68
2021/12/04 05:00:05;;;;;;;10.30;9.27;;;;;;;3.72;65.35;96469.91;8348179;28;20240;-67
2021/12/04 05:12:53;;;;;;;9.23;8.33;;;;;;;3.76;65.39;96451.88;8348183;28;20239;-67
2021/12/04 05:17:03;;;;;;;9.70;8.70;;;;;;;3.50;65.70;96456.31;8348248;28;20235;-67
2021/12/04 05:21:07;;;;;;;9.07;8.20;;;;;;;4.00;64.53;96460.25;8347791;28;20232;-67
2021/12/04 05:25:11;;;;;;;8.60;7.80;;;;;;;4.09;64.14;96465.84;8347900;28;20247;-67
2021/12/04 05:29:18;;;;;;;8.20;7.40;;;;;;;4.01;64.59;96473.00;8347870;28;20232;-67
2021/12/04 05:33:23;;;;;;;9.33;8.50;;;;;;;3.79;64.42;96460.28;8348098;28;20240;-67
2021/12/04 05:37:29;;;;;;;8.67;7.87;;;;;;;3.65;66.24;96457.44;8347794;28;20232;-67
2021/12/04 05:41:33;;;;;;;9.37;8.47;;;;;;;3.61;66.24;96451.59;8347881;28;20235;-67
2021/12/04 05:45:40;;;;;;;8.67;7.83;;;;;;;3.61;66.18;96454.16;8347770;28;20241;-67
2021/12/04 05:49:52;;;;;;;9.60;8.40;;;;;;;3.66;65.30;96443.75;8347900;28;20231;-67
2021/12/04 05:54:03;;;;;;;9.80;8.90;;;;;;;3.88;65.04;96431.72;8347634;28;20232;-67
2021/12/04 05:58:07;;;;;;;8.83;7.97;;;;;;;4.17;64.05;96436.47;8339508;28;20236;-67
2021/12/04 06:02:10;;;;;;;9.47;8.60;;;;;;;3.76;65.36;96439.09;8347167;28;20424;-67
2021/12/04 06:06:14;;;;;;;8.10;7.37;;;;;;;4.03;64.84;96442.19;8352075;28;20243;-67
2021/12/04 06:10:17;;;;;;;10.43;9.27;;;;;;;4.00;65.08;96438.06;8354167;28;20456;-67
2021/12/04 06:14:24;;;;;;;9.20;8.30;;;;;;;3.52;66.70;96434.91;8353605;28;20232;-67
2021/12/04 06:18:31;;;;;;;8.93;8.13;;;;;;;4.00;65.42;96437.19;8353674;28;20257;-67
2021/12/04 06:22:40;;;;;;;9.90;9.00;;;;;;;4.14;64.65;96434.91;8353389;28;20231;-67
2021/12/04 06:26:43;;;;;;;8.63;7.73;;;;;;;4.53;63.73;96422.94;8353245;28;20244;-67
2021/12/04 06:30:48;;;;;;;9.03;8.23;;;;;;;3.89;65.74;96427.44;8352910;28;20236;-67
2021/12/04 06:34:52;;;;;;;8.97;8.10;;;;;;;4.16;65.17;96427.97;8352679;28;20240;-67
2021/12/04 06:38:55;;;;;;;9.30;8.40;;;;;;;4.29;64.16;96428.28;8352781;28;20232;-67
2021/12/04 06:42:59;;;;;;;9.10;8.20;;;;;;;4.19;64.78;96437.25;8352345;28;20254;-67
2021/12/04 06:47:04;;;;;;;8.30;7.60;;;;;;;4.36;64.12;96428.81;8352417;28;20247;-67
2021/12/04 06:51:13;;;;;;;9.70;8.80;;;;;;;4.05;65.20;96419.91;8352041;28;20523;-67
2021/12/04 06:55:17;;;;;;;8.43;7.63;;;;;;;4.66;63.34;96411.25;8352252;28;20299;-67
2021/12/04 06:59:24;;;;;;;9.10;8.20;;;;;;;4.53;63.59;96412.69;8351848;28;20232;-67
2021/12/04 07:03:29;;;;;;;8.53;7.73;;;;;;;4.05;65.28;96399.41;8351879;28;20291;-67
2021/12/04 07:07:31;;;;;;;9.60;8.67;;;;;;;4.35;64.48;96399.81;8351839;28;20232;-67
2021/12/04 07:11:34;;;;;;;8.90;8.03;;;;;;;4.19;64.79;96404.78;8351808;28;20239;-67
2021/12/04 07:15:37;;;;;;;8.47;7.57;;;;;;;4.10;66.01;96389.81;8351282;28;20255;-67
2021/12/04 07:19:42;;;;;;;8.90;8.10;;;;;;;4.18;65.23;96392.03;8351720;28;20472;-67
2021/12/04 07:23:45;;;;;;;8.50;7.70;;;;;;;3.89;66.78;96381.31;8351609;28;20236;-67
2021/12/04 07:27:50;;;;;;;7.57;6.97;;;;;;;4.13;65.88;96381.16;8350876;28;20246;-67
2021/12/04 07:31:53;;;;;;;7.97;7.27;;;;;;;4.26;65.63;96377.16;8351069;28;20231;-67
2021/12/04 07:35:58;;;;;;;8.40;7.60;;;;;;;4.03;66.24;96373.88;8351432;28;20242;-67
2021/12/04 07:40:01;;;;;;;7.70;7.00;;;;;;;4.26;65.49;96360.03;8351042;28;20422;-67
2021/12/04 07:44:04;;;;;;;8.23;7.40;;;;;;;4.00;66.47;96360.34;8350631;28;20236;-68
2021/12/04 07:48:07;;;;;;;7.60;6.90;;;;;;;4.06;66.92;96360.09;8342053;28;20436;-67
2021/12/04 07:52:11;;;;;;;8.77;7.00;;;;;;;4.14;65.92;96342.66;8350449;28;20242;-68
2021/12/04 07:56:14;;;;;;;8.00;7.20;;;;;;;3.90;66.69;96350.53;8350286;28;20244;-68
2021/12/04 08:00:18;;;;;;;7.77;7.07;;;;;;;3.88;67.46;96339.53;8349963;28;20236;-67
2021/12/04 08:04:21;;;;;;;8.37;7.47;;;;;;;4.19;66.36;96338.16;8349984;28;20228;-67
2021/12/04 08:08:26;;;;;;;10.27;8.10;;;;;;;3.82;67.61;96344.06;8349149;28;20228;-67
2021/12/04 08:12:29;;;;;;;7.73;6.93;;;;;;;4.04;67.62;96334.56;8349157;28;20238;-67
2021/12/04 08:16:33;;;;;;;7.43;6.73;;;;;;;4.09;67.21;96334.34;8346492;28;20576;-67
2021/12/04 08:20:36;;;;;;;9.00;8.20;;;;;;;3.88;67.37;96341.22;8349000;28;20266;-68
2021/12/04 08:24:42;;;;;;;7.23;6.63;;;;;;;4.40;66.22;96343.19;8348882;28;20426;-68
2021/12/04 08:28:46;;;;;;;40.47;25.60;;;;;;;4.63;64.96;96340.44;8354050;28;20242;-68
2021/12/04 08:32:52;;;;;;;10.87;9.47;;;;;;;4.60;65.38;96340.56;8349223;28;20538;-68
2021/12/04 08:36:55;;;;;;;6.83;6.17;;;;;;;4.64;65.28;96333.56;8349306;28;20232;-67
2021/12/04 08:40:59;;;;;;;7.87;7.13;;;;;;;4.48;66.29;96339.41;8349288;28;20247;-68
2021/12/04 08:45:02;;;;;;;17.10;14.57;;;;;;;4.66;65.67;96340.28;8348990;28;20240;-68
2021/12/04 08:49:06;;;;;;;9.30;8.50;;;;;;;4.57;64.95;96335.59;8348670;28;20247;-67
2021/12/04 08:53:09;;;;;;;8.17;7.33;;;;;;;4.49;66.61;96335.94;8348459;28;20306;-68
2021/12/04 08:57:14;;;;;;;9.13;7.07;;;;;;;4.92;64.74;96335.66;8348344;28;20238;-70
2021/12/04 09:01:24;;;;;;;15.27;13.67;;;;;;;4.69;65.52;96329.06;8345254;28;20235;-68
2021/12/04 09:05:27;;;;;;;18.43;15.93;;;;;;;4.65;65.73;96327.53;8348389;28;20285;-68
2021/12/04 09:09:30;;;;;;;39.60;29.90;;;;;;;4.97;64.73;96327.72;8348210;28;20236;-67
2021/12/04 09:13:55;;;;;;;10.03;8.63;;;;;;;4.72;65.90;96323.75;8348694;28;20227;-67
2021/12/04 09:17:58;;;;;;;8.67;6.77;;;;;;;5.04;64.41;96322.22;8348535;28;20419;-67
2021/12/04 09:22:01;;;;;;;8.33;7.53;;;;;;;5.50;63.04;96316.56;8348029;28;20238;-67
2021/12/04 09:26:38;;;;;;;6.93;6.33;;;;;;;5.37;63.23;96313.78;8346991;28;20395;-67
2021/12/04 10:06:10;;;;;;;6.77;6.10;;;;;;;5.09;65.15;96283.53;8342903;28;20240;-66
2021/12/04 10:15:06;;;;;;;6.80;6.20;;;;;;;5.34;64.91;96264.34;8340582;28;20224;-67
2021/12/04 10:19:31;;;;;;;6.20;5.70;;;;;;;5.48;64.88;96256.75;8338653;28;20239;-66
2021/12/04 10:32:31;;;;;;;7.33;6.63;;;;;;;5.14;66.38;96224.28;8320161;28;20229;-66
2021/12/04 10:36:37;;;;;;;8.33;7.37;;;;;;;5.44;65.38;96219.31;8306432;28;20237;-66
2021/12/04 10:40:42;;;;;;;7.93;7.13;;;;;;;5.41;65.90;96210.03;8308945;28;20229;-65
2021/12/04 10:44:49;;;;;;;8.17;7.43;;;;;;;5.51;65.26;96205.25;8308996;28;20237;-65
2021/12/04 10:49:02;;;;;;;8.30;7.50;;;;;;;5.61;65.62;96190.19;8297273;28;20233;-66
2021/12/04 10:53:10;;;;;;;11.40;8.53;;;;;;;5.16;66.49;96181.38;8287206;28;20234;-66
2021/12/04 11:01:52;;;;;;;11.33;9.40;;;;;;;5.37;65.94;96174.31;8316668;28;20235;-66
2021/12/04 11:19:19;;;;;;;10.90;9.63;;;;;;;5.40;67.31;96151.06;8284900;28;20221;-66
2021/12/04 11:45:17;;;;;;;12.87;10.07;;;;;;;5.88;65.64;96118.50;8310549;28;20232;-66
2021/12/04 11:49:22;;;;;;;14.70;11.77;;;;;;;5.84;66.57;96112.72;8317598;28;20433;-66
2021/12/04 11:53:26;;;;;;;15.47;13.03;;;;;;;5.64;67.37;96107.84;8317492;28;20451;-66
2021/12/04 11:57:32;;;;;;;15.27;12.23;;;;;;;5.71;66.78;96096.31;8317023;28;20237;-66
2021/12/04 12:01:36;;;;;;;13.23;11.73;;;;;;;5.54;68.81;96086.13;8316209;28;20233;-66
2021/12/04 12:05:45;;;;;;;15.57;13.43;;;;;;;5.34;68.70;96090.63;8316916;28;20225;-66
2021/12/04 12:09:49;;;;;;;14.30;12.10;;;;;;;5.78;67.29;96086.56;8316916;28;20536;-66
2021/12/04 12:13:59;;;;;;;12.60;11.23;;;;;;;5.86;67.07;96074.94;8316911;28;20443;-67
2021/12/04 12:18:11;;;;;;;16.07;12.67;;;;;;;5.73;66.97;96070.56;8316891;28;20244;-67
2021/12/04 12:22:28;;;;;;;19.83;13.27;;;;;;;5.34;69.14;96062.38;8316253;28;20236;-67
2021/12/04 12:26:40;;;;;;;15.20;12.20;;;;;;;5.51;68.34;96056.34;8316079;28;20335;-77
2021/12/04 12:39:27;;;;;;;11.93;10.77;;;;;;;5.36;69.52;96031.50;8244035;28;20415;-81
2021/12/04 12:43:44;;;;;;;11.67;10.47;;;;;;;5.54;68.59;96024.50;8283740;28;20229;-80
2021/12/04 12:47:54;;;;;;;12.93;10.60;;;;;;;5.54;69.02;96019.38;8283415;28;20237;-79
2021/12/04 12:52:00;;;;;;;10.60;9.50;;;;;;;5.94;67.65;96009.44;8283262;28;20235;-81
2021/12/04 12:56:07;;;;;;;13.87;11.73;;;;;;;5.76;68.79;96013.88;8284292;28;20263;-84
2021/12/04 13:13:32;;;;;;;14.80;13.20;;;;;;;5.67;69.90;95999.81;8304131;28;20237;-69
2021/12/04 13:17:35;;;;;;;15.03;13.53;;;;;;;5.79;69.36;95998.31;8283072;28;20243;-83
2021/12/04 13:21:41;;;;;;;11.53;10.33;;;;;;;6.03;68.76;95980.69;8283816;28;20313;-86
2021/12/04 13:25:50;;;;;;;11.50;10.40;;;;;;;5.74;69.08;95979.75;8283634;28;20244;-82
2021/12/04 13:29:56;;;;;;;11.40;10.30;;;;;;;5.74;69.84;95972.06;8283353;28;20237;-78
2021/12/04 13:33:59;;;;;;;11.93;10.70;;;;;;;5.48;71.09;95979.47;8283259;28;20233;-83
2021/12/04 13:38:05;;;;;;;15.20;13.50;;;;;;;5.81;69.76;95978.50;8283239;28;20238;-82
2021/12/04 13:42:09;;;;;;;15.00;12.00;;;;;;;5.82;69.25;95970.69;8289119;28;20238;-82
2021/12/04 13:46:11;;;;;;;12.17;10.87;;;;;;;5.46;70.82;95976.16;8297261;28;20237;-74
2021/12/04 13:54:40;;;;;;;9.70;8.67;;;;;;;5.77;69.88;95959.88;8296069;28;20232;-65
2021/12/04 13:58:45;;;;;;;8.90;8.10;;;;;;;6.03;69.25;95957.56;8288337;28;20242;-64
2021/12/04 14:02:48;;;;;;;8.87;7.97;;;;;;;6.03;69.74;95957.56;8287344;28;20245;-66
2021/12/04 14:06:54;;;;;;;9.10;8.30;;;;;;;5.95;69.91;95959.72;8314171;28;20237;-66
2021/12/04 14:10:58;;;;;;;9.37;8.47;;;;;;;6.07;69.23;95956.47;8317667;28;20234;-66
2021/12/04 14:15:08;;;;;;;9.83;8.93;;;;;;;5.68;70.62;95938.09;8331824;28;20243;-66
2021/12/04 14:19:12;;;;;;;10.63;9.53;;;;;;;5.62;71.90;95930.75;8313497;28;20237;-66
2021/12/04 14:23:16;;;;;;;12.17;10.93;;;;;;;5.70;71.13;95932.88;8315417;28;20236;-65
2021/12/04 14:27:22;;;;;;;9.87;8.87;;;;;;;6.03;69.77;95930.09;8320123;28;20236;-65
2021/12/04 14:31:25;;;;;;;7.83;7.10;;;;;;;6.07;69.54;95935.91;8316896;28;20244;-67
2021/12/04 14:35:30;;;;;;;11.63;9.63;;;;;;;5.81;70.04;95925.38;8270259;28;20236;-66
2021/12/04 14:39:33;;;;;;;8.73;7.60;;;;;;;6.24;68.76;95919.47;8287358;28;20280;-66
2021/12/04 14:43:40;;;;;;;8.87;7.97;;;;;;;6.29;69.02;95927.75;8286959;28;20266;-66
2021/12/04 14:47:45;;;;;;;8.83;7.93;;;;;;;5.89;70.56;95927.50;8287300;28;20241;-65
2021/12/04 14:51:48;;;;;;;11.83;9.87;;;;;;;6.20;69.22;95915.44;8287377;28;20244;-65
2021/12/04 14:55:52;;;;;;;15.03;13.53;;;;;;;5.87;70.67;95922.44;8286991;28;20234;-65
2021/12/04 15:00:07;;;;;;;14.23;12.40;;;;;;;5.57;72.30;95919.91;8286978;28;20544;-66
2021/12/04 15:04:10;;;;;;;14.57;12.53;;;;;;;5.85;71.17;95916.56;8286275;28;20421;-66
2021/12/04 15:08:16;;;;;;;25.33;20.43;;;;;;;5.66;71.22;95914.25;8286620;28;20242;-66
2021/12/04 15:12:28;;;;;;;22.67;17.83;;;;;;;5.58;72.22;95908.72;8286677;28;20238;-65
2021/12/04 15:16:37;;;;;;;10.77;9.77;;;;;;;5.63;72.07;95909.28;8286797;28;20233;-65
2021/12/04 15:20:46;;;;;;;11.03;9.93;;;;;;;5.83;71.32;95915.03;8286115;28;20544;-65
2021/12/04 15:24:52;;;;;;;10.03;9.03;;;;;;;5.93;71.19;95905.84;8286596;28;20307;-65
2021/12/04 15:28:56;;;;;;;11.30;10.10;;;;;;;5.38;73.03;95891.88;8286373;28;20243;-65
2021/12/04 15:33:00;;;;;;;10.57;9.27;;;;;;;5.83;70.55;95908.13;8285325;28;20230;-65
2021/12/04 15:37:05;;;;;;;12.57;10.30;;;;;;;5.66;72.52;95898.00;8285288;28;20400;-65
2021/12/04 15:41:27;;;;;;;9.77;8.87;;;;;;;6.07;70.29;95895.63;8318231;28;20501;-65
2021/12/04 15:45:41;;;;;;;9.63;7.80;;;;;;;5.67;71.98;95891.94;8350393;28;20235;-65
2021/12/04 15:50:10;;;;;;;8.80;7.93;;;;;;;5.63;71.89;95887.91;8350490;28;20238;-66
2021/12/04 15:54:17;;;;;;;14.40;13.00;;;;;;;5.75;71.92;95900.06;8357735;28;20227;-66
2021/12/04 15:58:22;;;;;;;19.33;17.43;;;;;;;5.78;71.46;95899.84;8362595;28;20244;-66
2021/12/04 16:02:33;;;;;;;14.07;12.47;;;;;;;5.43;73.06;95889.06;8350280;28;20236;-66
2021/12/04 16:06:40;;;;;;;16.20;14.60;;;;;;;5.49;72.65;95891.28;8346542;28;20424;-66
2021/12/04 16:10:45;;;;;;;11.80;10.60;;;;;;;6.05;71.04;95894.06;8294088;28;20436;-68
2021/12/04 16:14:54;;;;;;;11.67;10.47;;;;;;;5.76;71.99;95895.75;8277248;28;20241;-68
2021/12/04 16:18:57;;;;;;;10.00;9.03;;;;;;;6.01;71.26;95901.09;8282108;28;20426;-67
2021/12/04 16:23:02;;;;;;;12.87;11.57;;;;;;;5.95;71.04;95901.47;8284204;28;20237;-68
2021/12/04 16:27:12;;;;;;;10.03;9.00;;;;;;;6.29;70.28;95903.81;8276277;28;20562;-69
2021/12/04 16:31:29;;;;;;;10.90;9.80;;;;;;;6.32;69.68;95917.31;8308377;28;20225;-67
2021/12/04 16:35:43;;;;;;;15.97;14.13;;;;;;;6.61;69.05;95933.53;8316756;28;20235;-66
2021/12/04 16:39:48;;;;;;;13.47;12.10;;;;;;;6.66;68.91;95940.94;8315896;28;20245;-65
2021/12/04 16:43:51;;;;;;;17.50;15.87;;;;;;;6.78;68.04;95955.66;8315779;28;20236;-66
2021/12/04 16:47:55;;;;;;;11.87;10.77;;;;;;;6.85;67.95;95958.66;8315798;28;20237;-67
2021/12/04 16:56:32;;;;;;;20.17;17.90;;;;;;;6.97;67.02;95928.81;8315310;28;20240;-67
2021/12/04 17:00:35;;;;;;;14.93;13.43;;;;;;;6.81;68.47;95928.91;8314989;28;20237;-66
2021/12/04 17:04:39;;;;;;;23.53;17.97;;;;;;;6.85;67.92;95917.50;8315580;28;20232;-67
2021/12/04 17:08:42;;;;;;;25.30;20.27;;;;;;;6.93;67.87;95930.72;8315251;28;20240;-66
2021/12/04 17:12:48;;;;;;;24.93;20.37;;;;;;;7.09;66.68;95925.44;8313864;28;20236;-67
2021/12/04 17:16:52;;;;;;;24.87;20.53;;;;;;;6.83;67.43;95927.06;8315369;28;20239;-66
2021/12/04 17:20:58;;;;;;;24.03;20.83;;;;;;;7.01;67.16;95923.34;8315010;28;20291;-67
2021/12/04 17:25:01;;;;;;;15.10;13.50;;;;;;;7.01;67.77;95913.06;8314758;28;20236;-66
2021/12/04 17:29:08;;;;;;;15.27;13.67;;;;;;;6.56;68.89;95906.44;8314825;28;20232;-67
2021/12/04 17:33:11;;;;;;;13.90;12.60;;;;;;;6.72;68.79;95912.31;8314387;28;20229;-67
2021/12/04 17:37:16;;;;;;;12.33;11.13;;;;;;;6.89;68.56;95915.56;8313634;28;20461;-67
2021/12/04 17:41:22;;;;;;;12.60;11.30;;;;;;;7.05;67.71;95904.22;8314119;28;20240;-67
2021/12/04 17:45:26;;;;;;;12.80;11.50;;;;;;;7.09;66.97;95916.91;8314435;28;20233;-66
2021/12/04 17:49:29;;;;;;;16.00;14.33;;;;;;;6.81;68.63;95931.47;8314494;28;20233;-66
2021/12/04 17:53:37;;;;;;;19.80;15.07;;;;;;;7.01;68.08;95922.53;8314571;28;20440;-66
2021/12/04 17:57:41;;;;;;;16.53;13.70;;;;;;;7.10;68.18;95927.09;8314939;28;20421;-66
2021/12/04 18:01:49;;;;;;;19.73;16.83;;;;;;;6.93;69.20;95933.31;8330066;28;20243;-66
2021/12/04 18:05:55;;;;;;;24.13;21.53;;;;;;;7.02;68.85;95937.03;8323580;28;20260;-66
2021/12/04 18:10:03;;;;;;;19.67;17.67;;;;;;;7.24;67.75;95927.03;8320962;28;20220;-66
2021/12/04 18:14:08;;;;;;;21.77;19.57;;;;;;;7.04;68.65;95933.47;8295816;28;20225;-67
2021/12/04 18:18:13;;;;;;;19.67;17.27;;;;;;;7.11;68.05;95930.50;8288066;28;20245;-67
2021/12/04 18:22:16;;;;;;;20.67;17.53;;;;;;;7.20;68.67;95927.34;8288057;28;20540;-66
2021/12/04 18:26:19;;;;;;;21.87;18.00;;;;;;;7.43;67.18;95936.19;8288117;28;20229;-66
2021/12/04 18:30:23;;;;;;;22.27;19.70;;;;;;;7.35;67.87;95934.09;8278567;28;20244;-66
2021/12/04 18:34:28;;;;;;;19.10;17.20;;;;;;;7.48;66.36;95939.25;8293209;28;20232;-66
2021/12/04 18:38:31;;;;;;;17.50;15.70;;;;;;;7.49;66.69;95932.38;8352535;28;20232;-66
2021/12/04 18:42:35;;;;;;;18.27;16.47;;;;;;;7.47;66.43;95926.50;8293851;28;20233;-66
2021/12/04 18:46:39;;;;;;;21.83;9.63;;;;;;;9.31;79.55;95932.09;8286974;28;20544;-79
2021/12/04 18:50:43;;;;;;;19.70;17.03;;;;;;;9.63;62.92;95928.91;8287159;28;20566;-66
2021/12/04 18:54:46;;;;;;;18.80;16.87;;;;;;;8.76;64.04;95944.53;8286791;28;20244;-67
2021/12/04 18:58:51;;;;;;;19.20;17.30;;;;;;;8.50;64.08;95938.59;8286751;28;20229;-66
2021/12/04 19:02:57;;;;;;;21.10;18.87;;;;;;;8.33;65.27;95936.31;8286000;28;20226;-65
2021/12/04 19:07:03;;;;;;;22.03;19.63;;;;;;;8.29;65.00;95940.84;8286270;28;20241;-65
2021/12/04 19:11:07;;;;;;;24.97;22.37;;;;;;;8.20;65.32;95936.28;8312288;28;20226;-66
2021/12/04 19:15:12;;;;;;;25.00;22.23;;;;;;;8.07;65.76;95938.03;8286275;28;20244;-66
2021/12/04 19:19:15;;;;;;;24.90;21.67;;;;;;;8.12;66.18;95938.56;8286043;28;20233;-66
2021/12/04 19:23:23;;;;;;;24.50;22.00;;;;;;;8.11;65.62;95927.44;8286060;28;20413;-65
2021/12/04 19:27:26;;;;;;;23.27;20.47;;;;;;;8.15;66.01;95939.19;8291679;28;20287;-66
2021/12/04 19:31:32;;;;;;;22.17;19.70;;;;;;;8.13;66.09;95945.34;8285997;28;20508;-66
2021/12/04 19:48:57;;;;;;;10.60;9.23;;;;;;;8.27;70.48;95958.16;8316720;28;20263;-65
2021/12/04 19:53:13;;;;;;;9.57;6.13;;;;;;;7.91;71.64;96016.38;8314869;28;20240;-67
2021/12/04 19:57:21;;;;;;;5.13;3.53;;;;;;;8.00;70.14;96022.69;8299354;28;20222;-67
2021/12/04 20:01:35;;;;;;;2.13;1.93;;;;;;;7.95;69.75;96032.47;8282647;28;20229;-67
2021/12/04 20:05:51;;;;;;;1.73;1.63;;;;;;;7.87;70.26;96037.31;8281760;28;20249;-67
2021/12/04 20:14:21;;;;;;;1.60;1.37;;;;;;;7.68;69.78;96069.38;8281482;28;20420;-65
2021/12/04 20:18:24;;;;;;;2.83;2.40;;;;;;;7.67;69.41;96083.19;8283782;28;20232;-66
2021/12/04 20:22:27;;;;;;;2.40;2.20;;;;;;;7.62;69.00;96103.28;8282435;28;20233;-66
2021/12/04 20:26:35;;;;;;;1.87;1.73;;;;;;;7.62;69.35;96113.56;8283249;28;20233;-65
2021/12/04 20:30:58;;;;;;;1.50;1.40;;;;;;;7.67;68.67;96119.25;8283039;28;20390;-66
2021/12/04 20:52:46;;;;;;;2.10;2.00;;;;;;;7.67;67.75;96162.22;8282529;28;20236;-65
2021/12/04 21:49:32;;;;;;;2.20;2.00;;;;;;;7.52;65.50;96292.78;8291126;28;20519;-66
2021/12/04 21:53:36;;;;;;;1.77;1.63;;;;;;;7.42;65.52;96295.06;8278757;28;20226;-66
2021/12/04 21:58:03;;;;;;;1.93;1.40;;;;;;;7.55;65.20;96301.16;8281309;28;20232;-66
2021/12/04 22:10:52;;;;;;;1.10;1.00;;;;;;;7.48;64.94;96319.66;8280709;28;20233;-66
2021/12/04 22:15:17;;;;;;;6.40;3.83;;;;;;;7.46;65.08;96321.47;8280827;28;20225;-66
2021/12/04 22:19:34;;;;;;;2.67;1.97;;;;;;;7.40;64.70;96318.34;8278673;28;20224;-66
2021/12/04 22:58:22;;;;;;;2.40;2.20;;;;;;;7.50;65.25;96328.97;8285045;28;20233;-67
2021/12/04 23:02:28;;;;;;;3.87;3.47;;;;;;;7.64;64.33;96341.03;8285942;28;20251;-67
2021/12/04 23:11:21;;;;;;;3.83;1.90;;;;;;;7.60;64.32;96370.47;8284095;28;20233;-67
2021/12/04 23:15:40;;;;;;;3.87;1.70;;;;;;;7.63;64.00;96381.44;8284633;28;20222;-67
2021/12/04 23:32:58;;;;;;;2.20;2.00;;;;;;;7.42;63.27;96395.53;8286084;28;20286;-66
2021/12/04 23:37:18;;;;;;;3.77;1.87;;;;;;;7.44;63.42;96402.25;8285633;28;20241;-66
2021/12/04 23:46:11;;;;;;;1.97;1.50;;;;;;;7.29;63.08;96415.16;8285218;28;20419;-66
